createdAt,value
2023-04-09T00:01:55.706Z,101122.25
2023-04-09T00:04:58.232Z,101118.56
2023-04-09T00:08:01.405Z,101119.31
2023-04-09T00:11:04.438Z,101118.69
2023-04-09T00:14:07.322Z,101108.66
2023-04-09T00:17:10.041Z,101115.88
2023-04-09T00:20:13.004Z,101113.97
2023-04-09T00:23:15.857Z,101111.56
2023-04-09T00:26:18.995Z,101116.59
2023-04-09T00:29:22.233Z,101112.69
2023-04-09T00:32:25.174Z,101113.69
2023-04-09T00:35:27.719Z,101111.88
2023-04-09T00:38:31.109Z,101122.44
2023-04-09T00:41:33.976Z,101116.66
2023-04-09T00:44:36.777Z,101116.91
2023-04-09T00:47:39.705Z,101112.25
2023-04-09T00:50:43.446Z,101122.56
2023-04-09T00:53:46.712Z,101115.69
2023-04-09T00:56:49.369Z,101111.94
2023-04-09T00:59:52.809Z,101108.25
2023-04-09T01:03:01.173Z,101116.91
2023-04-09T01:06:11.342Z,101112.19
2023-04-09T01:09:41.832Z,101114.03
2023-04-09T01:13:00.478Z,101112.69
2023-04-09T01:16:04.179Z,101112.91
2023-04-09T01:19:26.960Z,101109.28
2023-04-09T01:23:06.761Z,101114.44
2023-04-09T01:26:30.926Z,101116.31
2023-04-09T01:29:39.461Z,101114.31
2023-04-09T01:32:43.891Z,101113.00
2023-04-09T01:35:49.191Z,101102.94
2023-04-09T01:38:53.322Z,101108.84
2023-04-09T01:41:58.100Z,101100.03
2023-04-09T01:45:01.897Z,101105.19
2023-04-09T01:48:05.784Z,101105.13
2023-04-09T01:51:08.924Z,101102.69
2023-04-09T01:54:11.736Z,101100.47
2023-04-09T01:57:14.344Z,101107.63
2023-04-09T02:00:17.408Z,101103.72
2023-04-09T02:03:26.989Z,101106.44
2023-04-09T02:06:48.706Z,101112.66
2023-04-09T02:09:54.465Z,101113.16
2023-04-09T02:13:00.182Z,101112.91
2023-04-09T02:16:04.017Z,101118.59
2023-04-09T02:19:06.930Z,101111.56
2023-04-09T02:22:09.881Z,101110.75
2023-04-09T02:25:13.162Z,101113.72
2023-04-09T02:28:16.457Z,101116.19
2023-04-09T02:31:19.553Z,101111.47
2023-04-09T02:34:22.947Z,101115.38
2023-04-09T02:37:25.988Z,101111.00
2023-04-09T02:40:28.596Z,101111.47
2023-04-09T02:43:31.578Z,101109.84
2023-04-09T02:46:34.476Z,101100.41
2023-04-09T02:49:37.178Z,101106.28
2023-04-09T02:52:40.160Z,101108.13
2023-04-09T02:55:42.821Z,101114.25
2023-04-09T02:58:45.793Z,101107.94
2023-04-09T03:01:48.957Z,101106.13
2023-04-09T03:04:53.053Z,101106.13
2023-04-09T03:07:57.236Z,101110.69
2023-04-09T03:11:00.717Z,101109.34
2023-04-09T03:14:03.588Z,101107.25
2023-04-09T03:17:06.228Z,101109.06
2023-04-09T03:20:09.457Z,101103.72
2023-04-09T03:23:14.554Z,101103.53
2023-04-09T03:26:21.857Z,101107.88
2023-04-09T03:29:26.263Z,101104.22
2023-04-09T03:32:29.443Z,101099.56
2023-04-09T03:35:32.209Z,101098.22
2023-04-09T03:38:36.825Z,101106.34
2023-04-09T03:41:45.593Z,101108.50
2023-04-09T03:44:54.047Z,101113.72
2023-04-09T03:48:09.654Z,101112.19
2023-04-09T03:51:14.370Z,101112.19
2023-04-09T03:54:23.007Z,101118.25
2023-04-09T03:57:27.806Z,101119.53
2023-04-09T04:00:31.781Z,101123.75
2023-04-09T04:03:54.871Z,101122.72
2023-04-09T04:06:59.794Z,101118.56
2023-04-09T04:10:09.970Z,101115.16
2023-04-09T04:13:15.724Z,101120.66
2023-04-09T04:16:26.200Z,101117.13
2023-04-09T04:19:30.591Z,101125.69
2023-04-09T04:22:34.914Z,101127.88
2023-04-09T04:25:42.838Z,101132.66
2023-04-09T04:28:49.145Z,101132.41
2023-04-09T04:32:03.073Z,101141.91
2023-04-09T04:35:11.990Z,101128.25
2023-04-09T04:38:15.949Z,101135.41
2023-04-09T04:41:18.914Z,101137.06
2023-04-09T04:44:28.776Z,101139.19
2023-04-09T04:47:51.320Z,101142.09
2023-04-09T04:51:05.951Z,101142.16
2023-04-09T04:54:16.072Z,101137.69
2023-04-09T04:57:25.574Z,101140.97
2023-04-09T05:00:29.469Z,101143.44
2023-04-09T05:03:36.983Z,101144.22
2023-04-09T05:06:52.925Z,101147.13
2023-04-09T05:09:58.950Z,101150.00
2023-04-09T05:13:04.801Z,101151.41
2023-04-09T05:16:20.799Z,101157.56
2023-04-09T05:19:29.561Z,101155.00
2023-04-09T05:22:36.468Z,101157.38
2023-04-09T05:25:40.040Z,101168.78
2023-04-09T05:28:48.895Z,101162.41
2023-04-09T05:31:55.082Z,101163.53
2023-04-09T05:35:11.381Z,101168.78
2023-04-09T05:38:18.980Z,101173.81
2023-04-09T05:41:28.970Z,101178.88
2023-04-09T05:44:53.728Z,101175.00
2023-04-09T05:47:57.297Z,101185.09
2023-04-09T05:51:01.104Z,101180.72
2023-04-09T05:54:04.778Z,101186.31
2023-04-09T05:57:11.946Z,101187.91
2023-04-09T06:00:18.521Z,101192.78
2023-04-09T06:03:23.110Z,101195.44
2023-04-09T06:06:26.336Z,101188.63
2023-04-09T06:09:29.605Z,101195.84
2023-04-09T06:12:35.309Z,101198.53
2023-04-09T06:15:39.629Z,101190.88
2023-04-09T06:18:42.603Z,101198.56
2023-04-09T06:21:45.564Z,101202.00
2023-04-09T06:24:48.483Z,101195.47
2023-04-09T06:27:51.258Z,101199.72
2023-04-09T06:30:55.317Z,101205.38
2023-04-09T06:33:58.201Z,101204.34
2023-04-09T06:37:00.831Z,101208.66
2023-04-09T06:40:03.761Z,101206.84
2023-04-09T06:43:06.589Z,101212.41
2023-04-09T06:46:20.616Z,101217.47
2023-04-09T06:49:23.202Z,101216.16
2023-04-09T06:52:26.213Z,101224.66
2023-04-09T06:55:29.168Z,101217.00
2023-04-09T06:58:31.983Z,101216.50
2023-04-09T07:01:35.870Z,101218.91
2023-04-09T07:04:38.905Z,101218.91
2023-04-09T07:07:41.463Z,101219.69
2023-04-09T07:10:47.561Z,101220.75
2023-04-09T07:13:50.552Z,101218.13
2023-04-09T07:16:53.407Z,101223.44
2023-04-09T07:19:56.521Z,101221.84
2023-04-09T07:22:59.809Z,101225.28
2023-04-09T07:26:04.529Z,101223.38
2023-04-09T07:29:08.158Z,101227.91
2023-04-09T07:32:10.868Z,101236.59
2023-04-09T07:35:13.772Z,101234.13
2023-04-09T07:38:16.802Z,101235.56
2023-04-09T07:41:19.788Z,101239.47
2023-04-09T07:44:22.441Z,101231.56
2023-04-09T07:47:25.460Z,101235.31
2023-04-09T07:50:28.182Z,101226.84
2023-04-09T07:53:31.142Z,101236.53
2023-04-09T07:56:33.868Z,101236.44
2023-04-09T07:59:36.799Z,101242.31
2023-04-09T08:02:39.981Z,101234.53
2023-04-09T08:05:43.284Z,101231.84
2023-04-09T08:08:46.236Z,101233.25
2023-04-09T08:11:49.737Z,101242.16
2023-04-09T08:14:52.714Z,101240.84
2023-04-09T08:17:55.746Z,101227.25
2023-04-09T08:20:58.650Z,101236.13
2023-04-09T08:24:04.624Z,101243.56
2023-04-09T08:27:07.348Z,101240.34
2023-04-09T08:30:10.743Z,101247.94
2023-04-09T08:33:14.018Z,101235.50
2023-04-09T08:36:16.984Z,101237.72
2023-04-09T08:39:20.755Z,101236.09
2023-04-09T08:42:26.423Z,101235.50
2023-04-09T08:45:29.404Z,101239.75
2023-04-09T08:48:32.582Z,101239.59
2023-04-09T08:51:35.286Z,101231.78
2023-04-09T08:54:38.472Z,101230.47
2023-04-09T08:57:41.540Z,101235.06
2023-04-09T09:00:44.951Z,101241.69
2023-04-09T09:04:04.645Z,101225.19
2023-04-09T09:07:07.597Z,101231.66
2023-04-09T09:10:10.517Z,101238.69
2023-04-09T09:13:24.420Z,101236.06
2023-04-09T09:16:27.594Z,101241.97
2023-04-09T09:19:33.694Z,101237.13
2023-04-09T09:22:55.255Z,101231.50
2023-04-09T09:25:58.477Z,101236.47
2023-04-09T09:29:04.148Z,101223.97
2023-04-09T09:32:13.913Z,101237.94
2023-04-09T09:35:16.627Z,101239.38
2023-04-09T09:38:19.350Z,101226.00
2023-04-09T09:41:22.388Z,101223.63
2023-04-09T09:44:33.228Z,101229.06
2023-04-09T09:47:36.550Z,101224.22
2023-04-09T09:50:42.205Z,101219.16
2023-04-09T09:53:47.134Z,101223.31
2023-04-09T09:56:53.170Z,101216.00
2023-04-09T10:00:04.249Z,101218.06
2023-04-09T10:03:20.393Z,101219.13
2023-04-09T10:06:23.976Z,101222.56
2023-04-09T10:09:28.378Z,101209.47
2023-04-09T10:12:31.440Z,101212.25
2023-04-09T10:15:34.140Z,101212.84
2023-04-09T10:18:37.010Z,101208.91
2023-04-09T10:21:54.959Z,101203.75
2023-04-09T10:24:58.188Z,101207.84
2023-04-09T10:28:02.465Z,101194.22
2023-04-09T10:31:08.829Z,101200.34
2023-04-09T10:34:11.569Z,101199.19
2023-04-09T10:37:17.009Z,101197.75
2023-04-09T10:40:22.627Z,101198.78
2023-04-09T10:43:25.409Z,101199.63
2023-04-09T10:46:34.957Z,101195.72
2023-04-09T10:49:39.775Z,101195.53
2023-04-09T10:52:42.765Z,101189.88
2023-04-09T10:55:50.414Z,101188.56
2023-04-09T10:58:54.233Z,101184.72
2023-04-09T11:01:57.196Z,101189.25
2023-04-09T11:05:18.376Z,101183.59
2023-04-09T11:08:22.367Z,101176.75
2023-04-09T11:11:28.575Z,101177.81
2023-04-09T11:14:33.463Z,101173.81
2023-04-09T11:17:37.138Z,101168.47
2023-04-09T11:20:40.337Z,101173.91
2023-04-09T11:23:51.469Z,101169.13
2023-04-09T11:26:54.835Z,101172.31
2023-04-09T11:29:57.572Z,101168.19
2023-04-09T11:33:01.159Z,101168.38
2023-04-09T11:36:06.884Z,101169.03
2023-04-09T11:39:09.542Z,101165.34
2023-04-09T11:42:15.729Z,101165.81
2023-04-09T11:45:19.176Z,101159.38
2023-04-09T11:48:24.007Z,101164.81
2023-04-09T11:51:27.460Z,101160.41
2023-04-09T11:54:36.750Z,101170.16
2023-04-09T11:57:48.324Z,101163.66
2023-04-09T12:01:01.026Z,101165.19
2023-04-09T12:04:05.645Z,101159.94
2023-04-09T12:07:09.457Z,101158.19
2023-04-09T12:10:12.630Z,101164.56
2023-04-09T12:13:16.949Z,101162.06
2023-04-09T12:16:21.358Z,101163.34
2023-04-09T12:19:26.041Z,101154.59
2023-04-09T12:22:28.500Z,101165.63
2023-04-09T12:25:32.884Z,101167.00
2023-04-09T12:28:35.776Z,101164.19
2023-04-09T12:31:38.780Z,101161.84
2023-04-09T12:34:41.606Z,101152.34
2023-04-09T12:37:44.999Z,101161.00
2023-04-09T12:40:48.977Z,101147.41
2023-04-09T12:43:52.106Z,101155.31
2023-04-09T12:47:00.248Z,101146.69
2023-04-09T12:50:04.778Z,101151.47
2023-04-09T12:53:07.439Z,101143.09
2023-04-09T12:56:10.741Z,101154.75
2023-04-09T12:59:13.438Z,101152.16
2023-04-09T13:02:16.728Z,101150.75
2023-04-09T13:05:19.642Z,101148.19
2023-04-09T13:08:22.768Z,101144.19
2023-04-09T13:11:25.917Z,101144.00
2023-04-09T13:14:28.848Z,101140.66
2023-04-09T13:17:31.585Z,101137.44
2023-04-09T13:20:35.079Z,101134.03
2023-04-09T13:23:37.516Z,101131.34
2023-04-09T13:26:42.277Z,101127.41
2023-04-09T13:29:45.016Z,101129.59
2023-04-09T13:32:48.010Z,101123.41
2023-04-09T13:35:51.345Z,101131.47
2023-04-09T13:38:54.545Z,101127.63
2023-04-09T13:41:58.246Z,101123.19
2023-04-09T13:45:01.362Z,101125.88
2023-04-09T13:48:05.585Z,101123.06
2023-04-09T13:51:08.949Z,101129.13
2023-04-09T13:54:11.635Z,101124.00
2023-04-09T13:57:14.544Z,101126.81
2023-04-09T14:00:17.457Z,101121.91
2023-04-09T14:03:20.687Z,101114.16
2023-04-09T14:06:23.454Z,101112.91
2023-04-09T14:09:26.185Z,101117.34
2023-04-09T14:12:29.428Z,101118.91
2023-04-09T14:15:32.796Z,101113.56
2023-04-09T14:18:35.554Z,101114.66
2023-04-09T14:21:39.286Z,101111.81
2023-04-09T14:24:41.922Z,101103.03
2023-04-09T14:27:45.109Z,101108.19
2023-04-09T14:30:48.452Z,101101.56
2023-04-09T14:33:51.208Z,101106.44
2023-04-09T14:36:53.587Z,101105.63
2023-04-09T14:39:56.554Z,101096.78
2023-04-09T14:43:00.382Z,101097.53
2023-04-09T14:46:04.310Z,101094.44
2023-04-09T14:49:07.081Z,101096.34
2023-04-09T14:52:10.103Z,101098.00
2023-04-09T14:55:12.639Z,101100.91
2023-04-09T14:58:15.518Z,101098.13
2023-04-09T15:01:18.080Z,101099.13
2023-04-09T15:04:21.271Z,101096.28
2023-04-09T15:07:25.258Z,101091.53
2023-04-09T15:10:28.577Z,101086.94
2023-04-09T15:13:31.489Z,101090.31
2023-04-09T15:16:37.748Z,101087.84
2023-04-09T15:19:40.544Z,101088.66
2023-04-09T15:22:43.748Z,101091.31
2023-04-09T15:25:48.081Z,101079.53
2023-04-09T15:28:51.509Z,101084.16
2023-04-09T15:31:54.589Z,101079.25
2023-04-09T15:34:57.604Z,101081.53
2023-04-09T15:38:00.274Z,101082.81
2023-04-09T15:41:03.284Z,101081.19
2023-04-09T15:44:05.930Z,101072.88
2023-04-09T15:47:08.570Z,101076.16
2023-04-09T15:50:11.286Z,101079.72
2023-04-09T15:53:17.715Z,101071.31
2023-04-09T15:56:20.359Z,101077.69
2023-04-09T15:59:23.326Z,101084.72
2023-04-09T16:02:26.650Z,101090.06
2023-04-09T16:05:29.827Z,101076.34
2023-04-09T16:08:32.686Z,101087.50
2023-04-09T16:11:36.706Z,101088.09
2023-04-09T16:14:41.010Z,101087.75
2023-04-09T16:17:43.731Z,101087.44
2023-04-09T16:20:46.602Z,101081.22
2023-04-09T16:23:50.010Z,101085.50
2023-04-09T16:26:52.402Z,101079.16
2023-04-09T16:29:55.554Z,101082.94
2023-04-09T16:32:58.521Z,101073.72
2023-04-09T16:36:01.638Z,101077.88
2023-04-09T16:39:05.079Z,101081.03
2023-04-09T16:42:07.933Z,101078.25
2023-04-09T16:45:11.251Z,101078.25
2023-04-09T16:48:14.278Z,101082.78
2023-04-09T16:51:17.241Z,101088.75
2023-04-09T16:54:20.770Z,101090.09
2023-04-09T16:57:23.292Z,101095.34
2023-04-09T17:00:27.638Z,101092.53
2023-04-09T17:03:30.621Z,101093.56
2023-04-09T17:06:33.501Z,101095.56
2023-04-09T17:09:36.257Z,101093.81
2023-04-09T17:12:39.208Z,101095.34
2023-04-09T17:15:42.267Z,101093.56
2023-04-09T17:18:45.764Z,101091.56
2023-04-09T17:21:48.389Z,101088.06
2023-04-09T17:24:52.898Z,101096.66
2023-04-09T17:27:55.288Z,101091.94
2023-04-09T17:30:58.145Z,101100.06
2023-04-09T17:34:00.896Z,101092.22
2023-04-09T17:37:03.810Z,101092.50
2023-04-09T17:40:06.877Z,101095.75
2023-04-09T17:43:10.125Z,101107.44
2023-04-09T17:46:12.879Z,101104.16
2023-04-09T17:49:15.612Z,101103.38
2023-04-09T17:52:18.623Z,101112.72
2023-04-09T17:55:23.773Z,101101.66
2023-04-09T17:58:27.011Z,101115.81
2023-04-09T18:01:29.947Z,101120.31
2023-04-09T18:04:34.377Z,101123.59
2023-04-09T18:07:38.998Z,101126.25
2023-04-09T18:10:42.209Z,101113.78
2023-04-09T18:13:45.086Z,101114.66
2023-04-09T18:16:47.978Z,101125.34
2023-04-09T18:19:53.691Z,101113.16
2023-04-09T18:22:56.369Z,101114.47
2023-04-09T18:25:59.041Z,101114.75
2023-04-09T18:29:01.819Z,101118.22
2023-04-09T18:32:05.503Z,101128.31
2023-04-09T18:35:08.532Z,101125.13
2023-04-09T18:38:11.348Z,101135.19
2023-04-09T18:41:21.165Z,101125.69
2023-04-09T18:44:23.717Z,101130.97
2023-04-09T18:47:26.603Z,101128.34
2023-04-09T18:50:29.249Z,101132.28
2023-04-09T18:53:31.973Z,101130.16
2023-04-09T18:56:34.920Z,101131.75
2023-04-09T18:59:37.390Z,101141.00
2023-04-09T19:02:40.696Z,101143.88
2023-04-09T19:05:43.850Z,101145.22
2023-04-09T19:08:48.108Z,101148.81
2023-04-09T19:11:51.120Z,101152.22
2023-04-09T19:14:57.056Z,101145.91
2023-04-09T19:18:00.027Z,101157.00
2023-04-09T19:21:02.829Z,101149.34
2023-04-09T19:24:06.233Z,101156.25
2023-04-09T19:27:10.312Z,101148.28
2023-04-09T19:30:13.115Z,101161.72
2023-04-09T19:33:16.410Z,101159.34
2023-04-09T19:36:19.216Z,101150.59
2023-04-09T19:39:22.327Z,101156.94
2023-04-09T19:42:25.544Z,101159.28
2023-04-09T19:45:28.474Z,101168.25
2023-04-09T19:48:31.432Z,101165.59
2023-04-09T19:51:34.571Z,101156.03
2023-04-09T19:54:37.680Z,101161.31
2023-04-09T19:57:41.121Z,101159.97
2023-04-09T20:00:43.703Z,101160.75
2023-04-09T20:03:47.240Z,101166.59
2023-04-09T20:06:51.591Z,101168.16
2023-04-09T20:09:55.030Z,101165.44
2023-04-09T20:12:58.120Z,101171.00
2023-04-09T20:16:01.335Z,101170.72
2023-04-09T20:19:04.496Z,101165.88
2023-04-09T20:22:07.346Z,101170.13
2023-04-09T20:25:12.536Z,101166.97
2023-04-09T20:28:15.504Z,101164.78
2023-04-09T20:31:18.033Z,101159.25
2023-04-09T20:34:26.786Z,101160.19
2023-04-09T20:37:29.622Z,101165.53
2023-04-09T20:40:35.467Z,101162.00
2023-04-09T20:43:38.524Z,101165.38
2023-04-09T20:46:41.326Z,101160.59
2023-04-09T20:49:45.871Z,101161.09
2023-04-09T20:52:49.978Z,101158.19
2023-04-09T20:55:53.433Z,101155.06
2023-04-09T20:58:57.854Z,101154.75
2023-04-09T21:02:00.645Z,101158.69
2023-04-09T21:05:15.685Z,101152.84
2023-04-09T21:08:24.683Z,101156.22
2023-04-09T21:11:27.749Z,101162.13
2023-04-09T21:14:31.525Z,101167.84
2023-04-09T21:17:34.301Z,101166.63
2023-04-09T21:20:37.449Z,101158.56
2023-04-09T21:23:41.786Z,101167.50
2023-04-09T21:26:51.724Z,101166.72
2023-04-09T21:29:55.538Z,101178.25
2023-04-09T21:33:01.102Z,101176.84
2023-04-09T21:36:04.956Z,101176.81
2023-04-09T21:39:07.916Z,101166.53
2023-04-09T21:42:15.119Z,101173.81
2023-04-09T21:45:18.174Z,101165.41
2023-04-09T21:48:21.694Z,101168.59
2023-04-09T21:51:25.023Z,101172.53
2023-04-09T21:54:28.191Z,101165.31
2023-04-09T21:57:30.822Z,101172.59
2023-04-09T22:00:33.798Z,101170.38
2023-04-09T22:03:36.450Z,101172.94
2023-04-09T22:06:40.544Z,101172.94
2023-04-09T22:09:42.931Z,101175.91
2023-04-09T22:12:46.510Z,101171.41
2023-04-09T22:15:49.327Z,101174.53
2023-04-09T22:18:52.948Z,101167.41
2023-04-09T22:21:56.353Z,101172.13
2023-04-09T22:24:59.001Z,101175.63
2023-04-09T22:28:02.009Z,101176.75
2023-04-09T22:31:05.462Z,101184.56
2023-04-09T22:34:20.163Z,101185.53
2023-04-09T22:37:24.619Z,101185.84
2023-04-09T22:40:27.328Z,101188.47
2023-04-09T22:43:30.404Z,101191.06
2023-04-09T22:46:34.640Z,101183.91
2023-04-09T22:49:37.819Z,101188.31
2023-04-09T22:52:40.867Z,101189.78
2023-04-09T22:55:43.589Z,101181.13
2023-04-09T22:58:46.325Z,101176.59
2023-04-09T23:01:50.111Z,101187.22
2023-04-09T23:04:52.848Z,101180.91
2023-04-09T23:07:56.097Z,101175.88
2023-04-09T23:10:58.656Z,101178.09
2023-04-09T23:14:01.744Z,101176.34
2023-04-09T23:17:04.464Z,101183.28
2023-04-09T23:20:08.960Z,101177.22
2023-04-09T23:23:12.344Z,101170.41
2023-04-09T23:26:15.024Z,101177.03
2023-04-09T23:29:18.093Z,101167.28
2023-04-09T23:32:22.001Z,101162.06
2023-04-09T23:35:24.538Z,101167.28
2023-04-09T23:38:27.798Z,101168.41
2023-04-09T23:41:31.794Z,101168.28
2023-04-09T23:44:36.522Z,101161.94
2023-04-09T23:47:39.431Z,101162.09
2023-04-09T23:50:42.532Z,101158.78
2023-04-09T23:53:46.670Z,101153.88
2023-04-09T23:56:49.467Z,101155.72
2023-04-09T23:59:52.377Z,101154.06
